createdAt,value
2019-03-23T00:01:30.754Z,19.15
2019-03-23T00:03:59.676Z,18.73
2019-03-23T00:06:31.034Z,17.60
2019-03-23T00:08:58.655Z,17.98
2019-03-23T00:11:27.238Z,17.42
2019-03-23T00:13:55.918Z,17.80
2019-03-23T00:16:24.366Z,19.42
2019-03-23T00:18:55.471Z,19.07
2019-03-23T00:21:23.642Z,19.87
2019-03-23T00:23:52.819Z,16.82
2019-03-23T00:26:21.913Z,17.48
2019-03-23T00:28:51.481Z,17.75
2019-03-23T00:31:20.076Z,16.40
2019-03-23T00:33:48.584Z,15.15
2019-03-23T00:36:17.086Z,16.30
2019-03-23T00:38:45.650Z,15.70
2019-03-23T00:41:14.146Z,18.00
2019-03-23T00:43:42.717Z,17.60
2019-03-23T00:46:11.298Z,16.67
2019-03-23T00:48:39.767Z,17.32
2019-03-23T00:51:08.219Z,15.53
2019-03-23T00:53:36.742Z,16.60
2019-03-23T00:56:05.179Z,15.03
2019-03-23T00:58:33.671Z,15.08
2019-03-23T01:01:02.144Z,15.55
2019-03-23T01:03:30.669Z,14.30
2019-03-23T01:05:59.163Z,14.30
2019-03-23T01:08:27.738Z,14.93
2019-03-23T01:10:56.223Z,17.60
2019-03-23T01:13:24.688Z,17.85
2019-03-23T01:15:53.175Z,18.73
2019-03-23T01:18:21.656Z,17.05
2019-03-23T01:20:50.173Z,15.78
2019-03-23T01:23:18.619Z,17.02
2019-03-23T01:25:47.059Z,15.13
2019-03-23T01:28:15.581Z,16.73
2019-03-23T01:30:44.062Z,19.23
2019-03-23T01:33:12.514Z,17.42
2019-03-23T01:35:41.027Z,18.62
2019-03-23T01:38:09.426Z,16.40
2019-03-23T01:40:37.989Z,20.02
2019-03-23T01:43:06.687Z,15.23
2019-03-23T01:45:35.149Z,16.20
2019-03-23T01:48:03.643Z,16.97
2019-03-23T01:50:32.117Z,17.02
2019-03-23T01:53:00.607Z,17.25
2019-03-23T01:55:29.074Z,18.62
2019-03-23T01:57:57.527Z,24.20
2019-03-23T02:00:26.044Z,24.52
2019-03-23T02:02:54.518Z,27.02
2019-03-23T02:05:23.005Z,27.32
2019-03-23T02:07:51.475Z,18.55
2019-03-23T02:10:19.931Z,20.65
2019-03-23T02:12:48.545Z,26.57
2019-03-23T02:15:17.079Z,19.48
2019-03-23T02:17:45.614Z,18.17
2019-03-23T02:20:14.975Z,16.73
2019-03-23T02:22:43.498Z,22.02
2019-03-23T02:25:12.832Z,19.92
2019-03-23T02:27:41.382Z,20.43
2019-03-23T02:30:11.297Z,17.40
2019-03-23T02:32:39.889Z,18.12
2019-03-23T02:35:08.980Z,17.35
2019-03-23T02:37:37.566Z,18.82
2019-03-23T02:40:07.138Z,21.60
2019-03-23T02:42:35.648Z,16.87
2019-03-23T02:45:05.564Z,17.17
2019-03-23T02:47:40.595Z,18.30
2019-03-23T02:50:14.143Z,15.85
2019-03-23T02:52:46.960Z,20.65
2019-03-23T02:55:15.384Z,20.32
2019-03-23T02:57:43.840Z,20.82
2019-03-23T03:00:13.763Z,18.40
2019-03-23T03:02:42.200Z,21.12
2019-03-23T03:05:11.363Z,17.07
2019-03-23T03:07:42.719Z,19.37
2019-03-23T03:10:11.376Z,27.60
2019-03-23T03:12:39.795Z,19.70
2019-03-23T03:15:09.456Z,20.05
2019-03-23T03:17:37.941Z,22.65
2019-03-23T03:20:07.853Z,23.57
2019-03-23T03:22:36.437Z,19.45
2019-03-23T03:25:06.338Z,18.30
2019-03-23T03:27:34.935Z,20.08
2019-03-23T03:30:04.425Z,20.32
2019-03-23T03:32:32.921Z,19.48
2019-03-23T03:35:01.345Z,18.10
2019-03-23T03:37:29.885Z,23.70
2019-03-23T03:39:58.299Z,20.48
2019-03-23T03:42:26.743Z,17.27
2019-03-23T03:44:55.326Z,20.77
2019-03-23T03:47:23.808Z,19.15
2019-03-23T03:49:52.284Z,22.87
2019-03-23T03:52:20.736Z,21.27
2019-03-23T03:54:49.220Z,26.52
2019-03-23T03:57:17.732Z,22.30
2019-03-23T03:59:46.218Z,19.70
2019-03-23T04:02:14.711Z,21.20
2019-03-23T04:04:43.280Z,22.30
2019-03-23T04:07:11.772Z,20.12
2019-03-23T04:09:40.476Z,21.42
2019-03-23T04:12:09.724Z,22.32
2019-03-23T04:14:38.228Z,23.73
2019-03-23T04:17:06.707Z,20.92
2019-03-23T04:19:35.230Z,20.95
2019-03-23T04:22:03.676Z,25.15
2019-03-23T04:24:32.152Z,22.45
2019-03-23T04:27:02.193Z,22.22
2019-03-23T04:29:30.751Z,20.30
2019-03-23T04:31:59.232Z,21.50
2019-03-23T04:34:27.815Z,23.07
2019-03-23T04:36:56.501Z,22.67
2019-03-23T04:39:24.985Z,20.05
2019-03-23T04:41:53.565Z,23.18
2019-03-23T04:44:22.038Z,23.02
2019-03-23T04:46:50.487Z,20.62
2019-03-23T04:49:18.994Z,22.10
2019-03-23T04:51:47.451Z,20.25
2019-03-23T04:54:15.973Z,27.73
2019-03-23T04:56:44.507Z,23.60
2019-03-23T04:59:12.976Z,27.82
2019-03-23T05:01:41.515Z,19.27
2019-03-23T05:04:09.998Z,23.05
2019-03-23T05:06:38.522Z,22.73
2019-03-23T05:09:08.769Z,23.55
2019-03-23T05:11:37.284Z,23.62
2019-03-23T05:14:05.818Z,22.02
2019-03-23T05:16:34.457Z,20.48
2019-03-23T05:19:02.936Z,31.62
2019-03-23T05:21:31.427Z,24.65
2019-03-23T05:23:59.995Z,22.50
2019-03-23T05:26:28.529Z,23.73
2019-03-23T05:28:56.978Z,26.73
2019-03-23T05:31:25.541Z,24.80
2019-03-23T05:33:53.942Z,23.70
2019-03-23T05:36:22.395Z,23.20
2019-03-23T05:38:50.985Z,22.35
2019-03-23T05:41:19.465Z,22.80
2019-03-23T05:43:47.941Z,23.25
2019-03-23T05:46:16.428Z,26.62
2019-03-23T05:48:44.863Z,25.88
2019-03-23T05:51:13.340Z,22.48
2019-03-23T05:53:41.830Z,21.93
2019-03-23T05:56:10.267Z,30.20
2019-03-23T05:58:38.755Z,23.10
2019-03-23T06:01:07.314Z,24.12
2019-03-23T06:03:36.206Z,23.20
2019-03-23T06:06:05.096Z,33.63
2019-03-23T06:08:33.988Z,27.52
2019-03-23T06:11:02.834Z,29.25
2019-03-23T06:13:31.669Z,22.35
2019-03-23T06:16:00.557Z,49.63
2019-03-23T06:18:29.448Z,54.75
2019-03-23T06:20:58.441Z,35.35
2019-03-23T06:23:27.314Z,29.70
2019-03-23T06:25:56.224Z,29.87
2019-03-23T06:28:25.215Z,26.30
2019-03-23T06:30:53.798Z,26.45
2019-03-23T06:33:22.479Z,24.35
2019-03-23T06:35:50.968Z,26.12
2019-03-23T06:38:19.436Z,26.93
2019-03-23T06:40:47.888Z,27.00
2019-03-23T06:43:16.414Z,26.17
2019-03-23T06:45:44.955Z,27.20
2019-03-23T06:48:13.819Z,23.52
2019-03-23T06:50:42.774Z,27.37
2019-03-23T06:53:11.660Z,25.53
2019-03-23T06:55:40.558Z,23.83
2019-03-23T06:58:09.448Z,31.20
2019-03-23T07:00:38.441Z,27.30
2019-03-23T07:03:07.332Z,28.83
2019-03-23T07:05:36.222Z,30.73
2019-03-23T07:08:05.931Z,28.50
2019-03-23T07:10:34.927Z,34.07
2019-03-23T07:13:03.814Z,34.57
2019-03-23T07:15:32.808Z,39.80
2019-03-23T07:18:01.803Z,32.33
2019-03-23T07:20:30.691Z,40.83
2019-03-23T07:22:59.585Z,45.00
2019-03-23T07:25:28.408Z,54.93
2019-03-23T07:27:57.364Z,59.00
2019-03-23T07:30:26.262Z,59.30
2019-03-23T07:32:55.179Z,67.63
2019-03-23T07:35:24.140Z,55.13
2019-03-23T07:37:53.132Z,60.30
2019-03-23T07:40:22.044Z,55.80
2019-03-23T07:42:50.606Z,50.90
2019-03-23T07:45:19.497Z,62.93
2019-03-23T07:47:48.394Z,53.53
2019-03-23T07:50:16.815Z,57.30
2019-03-23T07:52:45.300Z,51.83
2019-03-23T07:55:17.723Z,64.47
2019-03-23T07:57:46.623Z,48.10
2019-03-23T08:00:18.460Z,47.07
2019-03-23T08:02:48.839Z,49.83
2019-03-23T08:05:18.508Z,40.30
2019-03-23T08:07:47.500Z,43.17
2019-03-23T08:10:34.824Z,42.07
2019-03-23T08:13:04.417Z,40.63
2019-03-23T08:15:33.267Z,46.00
2019-03-23T08:18:02.109Z,43.73
2019-03-23T08:20:30.997Z,44.37
2019-03-23T08:22:59.849Z,41.57
2019-03-23T08:25:28.690Z,42.50
2019-03-23T08:27:57.578Z,42.33
2019-03-23T08:30:26.424Z,41.10
2019-03-23T08:32:55.276Z,46.03
2019-03-23T08:35:24.220Z,40.70
2019-03-23T08:37:53.044Z,43.13
2019-03-23T08:40:21.938Z,40.00
2019-03-23T08:42:50.839Z,42.37
2019-03-23T08:45:19.683Z,41.00
2019-03-23T08:47:48.825Z,44.83
2019-03-23T08:50:17.710Z,43.20
2019-03-23T08:52:46.671Z,42.87
2019-03-23T08:55:15.512Z,42.93
2019-03-23T08:57:44.407Z,42.13
2019-03-23T09:00:13.458Z,41.40
2019-03-23T09:02:42.310Z,45.77
2019-03-23T09:05:11.290Z,43.77
2019-03-23T09:07:40.130Z,40.67
2019-03-23T09:10:09.415Z,44.33
2019-03-23T09:12:38.263Z,43.47
2019-03-23T09:15:09.116Z,42.23
2019-03-23T09:17:38.029Z,44.77
2019-03-23T09:20:09.498Z,42.67
2019-03-23T09:22:38.343Z,43.50
2019-03-23T09:25:07.288Z,41.83
2019-03-23T09:27:36.176Z,38.33
2019-03-23T09:30:10.060Z,45.70
2019-03-23T09:32:39.027Z,43.00
2019-03-23T09:35:08.359Z,39.70
2019-03-23T09:37:38.165Z,40.83
2019-03-23T09:40:11.105Z,43.10
2019-03-23T09:42:38.412Z,41.90
2019-03-23T09:45:08.441Z,40.53
2019-03-23T09:47:38.108Z,38.03
2019-03-23T09:50:10.496Z,37.60
2019-03-23T09:52:39.390Z,41.40
2019-03-23T09:55:08.641Z,38.57
2019-03-23T09:57:37.487Z,40.93
2019-03-23T10:00:09.180Z,42.00
2019-03-23T10:02:38.051Z,34.50
2019-03-23T10:05:08.983Z,41.83
2019-03-23T10:07:37.879Z,42.03
2019-03-23T10:10:07.672Z,39.90
2019-03-23T10:12:36.529Z,42.07
2019-03-23T10:15:07.916Z,41.73
2019-03-23T10:17:36.866Z,40.40
2019-03-23T10:20:07.228Z,39.27
2019-03-23T10:22:36.318Z,40.80
2019-03-23T10:25:07.063Z,41.90
2019-03-23T10:27:36.075Z,40.57
2019-03-23T10:30:08.772Z,40.63
2019-03-23T10:32:37.763Z,41.17
2019-03-23T10:35:08.716Z,42.90
2019-03-23T10:37:37.600Z,38.20
2019-03-23T10:40:10.847Z,39.83
2019-03-23T10:42:39.718Z,42.37
2019-03-23T10:45:10.081Z,40.80
2019-03-23T10:47:38.996Z,42.10
2019-03-23T10:50:09.382Z,41.50
2019-03-23T10:52:38.279Z,39.40
2019-03-23T10:55:08.219Z,40.33
2019-03-23T10:57:37.097Z,39.80
2019-03-23T11:00:14.179Z,37.20
2019-03-23T11:02:43.070Z,44.03
2019-03-23T11:05:13.379Z,37.63
2019-03-23T11:07:42.390Z,35.10
2019-03-23T11:10:14.253Z,38.07
2019-03-23T11:12:43.145Z,37.13
2019-03-23T11:15:12.854Z,38.30
2019-03-23T11:17:41.844Z,38.77
2019-03-23T11:20:15.808Z,34.80
2019-03-23T11:22:44.748Z,33.67
2019-03-23T11:25:13.840Z,39.33
2019-03-23T11:27:42.725Z,34.37
2019-03-23T11:30:14.388Z,38.77
2019-03-23T11:32:43.381Z,35.07
2019-03-23T11:35:12.494Z,34.20
2019-03-23T11:37:42.221Z,36.30
2019-03-23T11:40:11.796Z,37.90
2019-03-23T11:42:49.146Z,35.33
2019-03-23T11:45:11.864Z,32.87
2019-03-23T11:47:40.712Z,35.83
2019-03-23T11:50:10.111Z,31.93
2019-03-23T11:52:39.050Z,32.83
2019-03-23T11:55:08.192Z,25.67
2019-03-23T11:57:37.414Z,29.63
2019-03-23T12:00:12.252Z,32.27
2019-03-23T12:02:41.288Z,84.27
2019-03-23T12:05:11.628Z,28.80
2019-03-23T12:07:40.607Z,26.53
2019-03-23T12:10:13.823Z,27.80
2019-03-23T12:12:43.188Z,24.50
2019-03-23T12:15:13.774Z,25.43
2019-03-23T12:17:42.651Z,22.67
2019-03-23T12:20:11.987Z,21.63
2019-03-23T12:22:40.965Z,21.93
2019-03-23T12:25:10.871Z,25.70
2019-03-23T12:27:40.077Z,28.40
2019-03-23T12:30:12.221Z,31.10
2019-03-23T12:32:41.302Z,24.30
2019-03-23T12:35:10.381Z,21.80
2019-03-23T12:37:39.435Z,22.27
2019-03-23T12:40:09.221Z,19.97
2019-03-23T12:42:38.061Z,20.90
2019-03-23T12:45:08.111Z,24.07
2019-03-23T12:47:36.987Z,21.60
2019-03-23T12:50:07.628Z,21.43
2019-03-23T12:52:36.537Z,20.13
2019-03-23T12:55:07.428Z,21.40
2019-03-23T12:57:36.386Z,23.37
2019-03-23T13:00:13.981Z,21.40
2019-03-23T13:02:42.873Z,26.13
2019-03-23T13:05:11.865Z,22.43
2019-03-23T13:07:40.858Z,21.43
2019-03-23T13:10:14.339Z,21.13
2019-03-23T13:12:43.279Z,22.60
2019-03-23T13:15:13.575Z,21.20
2019-03-23T13:17:42.551Z,24.63
2019-03-23T13:20:12.052Z,21.70
2019-03-23T13:22:41.170Z,21.33
2019-03-23T13:25:10.440Z,18.57
2019-03-23T13:27:39.291Z,20.53
2019-03-23T13:30:18.556Z,24.17
2019-03-23T13:32:47.383Z,22.17
2019-03-23T13:35:16.227Z,21.30
2019-03-23T13:37:45.316Z,21.00
2019-03-23T13:40:14.200Z,23.70
2019-03-23T13:42:43.040Z,21.03
2019-03-23T13:45:12.086Z,20.70
2019-03-23T13:47:40.972Z,23.00
2019-03-23T13:50:11.324Z,21.80
2019-03-23T13:52:40.265Z,27.17
2019-03-23T13:55:13.098Z,22.40
2019-03-23T13:57:41.996Z,24.37
2019-03-23T14:00:11.245Z,22.67
2019-03-23T14:02:40.120Z,21.77
2019-03-23T14:05:16.105Z,23.27
2019-03-23T14:07:39.834Z,22.03
2019-03-23T14:10:08.957Z,24.97
2019-03-23T14:12:37.803Z,24.30
2019-03-23T14:15:07.472Z,22.73
2019-03-23T14:17:36.495Z,22.80
2019-03-23T14:20:06.988Z,24.33
2019-03-23T14:22:35.972Z,25.03
2019-03-23T14:25:07.012Z,21.37
2019-03-23T14:27:36.046Z,29.77
2019-03-23T14:30:07.148Z,20.57
2019-03-23T14:32:36.023Z,18.70
2019-03-23T14:35:06.652Z,21.13
2019-03-23T14:37:35.532Z,21.67
2019-03-23T14:40:07.162Z,28.03
2019-03-23T14:42:36.307Z,20.33
2019-03-23T14:45:08.019Z,23.43
2019-03-23T14:47:37.084Z,24.70
2019-03-23T14:50:06.739Z,22.00
2019-03-23T14:52:35.663Z,19.20
2019-03-23T14:55:05.807Z,19.37
2019-03-23T14:57:34.751Z,19.93
2019-03-23T15:00:07.553Z,24.30
2019-03-23T15:02:36.630Z,23.00
2019-03-23T15:05:07.828Z,23.73
2019-03-23T15:07:37.002Z,19.57
2019-03-23T15:10:08.551Z,17.53
2019-03-23T15:12:37.421Z,25.40
2019-03-23T15:15:07.599Z,20.23
2019-03-23T15:17:37.079Z,27.33
2019-03-23T15:20:06.707Z,22.30
2019-03-23T15:22:35.875Z,21.10
2019-03-23T15:25:06.024Z,22.43
2019-03-23T15:27:34.959Z,23.70
2019-03-23T15:30:07.508Z,22.57
2019-03-23T15:32:36.430Z,22.90
2019-03-23T15:35:07.404Z,25.40
2019-03-23T15:37:36.561Z,24.23
2019-03-23T15:40:07.671Z,22.23
2019-03-23T15:42:36.739Z,17.83
2019-03-23T15:45:09.764Z,17.97
2019-03-23T15:47:38.743Z,22.83
2019-03-23T15:50:09.603Z,27.80
2019-03-23T15:52:38.823Z,32.47
2019-03-23T15:55:08.342Z,25.00
2019-03-23T15:57:37.217Z,19.37
2019-03-23T16:00:10.839Z,16.87
2019-03-23T16:02:39.889Z,19.30
2019-03-23T16:05:09.236Z,19.03
2019-03-23T16:07:38.505Z,18.43
2019-03-23T16:10:08.903Z,15.03
2019-03-23T16:12:38.344Z,17.17
2019-03-23T16:15:10.389Z,17.90
2019-03-23T16:17:39.296Z,17.83
2019-03-23T16:20:10.644Z,19.10
2019-03-23T16:22:39.739Z,16.33
2019-03-23T16:25:09.652Z,17.33
2019-03-23T16:27:38.699Z,15.13
2019-03-23T16:30:09.686Z,16.70
2019-03-23T16:32:38.844Z,15.83
2019-03-23T16:35:08.911Z,14.60
2019-03-23T16:37:38.163Z,16.83
2019-03-23T16:40:09.656Z,14.37
2019-03-23T16:42:45.330Z,12.40
2019-03-23T16:45:10.678Z,20.60
2019-03-23T16:47:39.959Z,14.43
2019-03-23T16:50:09.941Z,23.53
2019-03-23T16:52:39.382Z,17.13
2019-03-23T16:55:11.167Z,18.20
2019-03-23T16:57:40.194Z,14.23
2019-03-23T17:00:14.350Z,15.07
2019-03-23T17:02:43.197Z,17.73
2019-03-23T17:05:12.286Z,17.20
2019-03-23T17:07:41.124Z,18.80
2019-03-23T17:10:10.269Z,15.30
2019-03-23T17:12:39.160Z,14.33
2019-03-23T17:15:08.604Z,21.47
2019-03-23T17:17:37.439Z,15.13
2019-03-23T17:20:06.414Z,22.93
2019-03-23T17:22:35.265Z,21.47
2019-03-23T17:25:06.247Z,18.43
2019-03-23T17:27:35.130Z,14.77
2019-03-23T17:30:05.679Z,22.10
2019-03-23T17:32:34.584Z,19.13
2019-03-23T17:35:04.141Z,15.73
2019-03-23T17:37:32.984Z,14.70
2019-03-23T17:40:01.879Z,16.50
2019-03-23T17:42:30.719Z,20.63
2019-03-23T17:44:59.561Z,14.40
2019-03-23T17:47:28.448Z,15.63
2019-03-23T17:49:57.365Z,18.90
2019-03-23T17:52:26.172Z,17.00
2019-03-23T17:54:55.056Z,16.93
2019-03-23T17:57:23.903Z,17.77
2019-03-23T17:59:52.736Z,18.50
2019-03-23T18:02:21.619Z,18.30
2019-03-23T18:04:50.465Z,22.03
2019-03-23T18:07:19.346Z,16.27
2019-03-23T18:09:48.298Z,17.80
2019-03-23T18:12:17.145Z,17.03
2019-03-23T18:14:46.042Z,15.73
2019-03-23T18:17:14.887Z,18.80
2019-03-23T18:19:43.721Z,15.97
2019-03-23T18:22:12.617Z,15.33
2019-03-23T18:24:41.478Z,18.60
2019-03-23T18:27:10.316Z,18.13
2019-03-23T18:29:39.196Z,16.07
2019-03-23T18:32:08.043Z,18.87
2019-03-23T18:34:36.888Z,16.50
2019-03-23T18:37:05.772Z,19.73
2019-03-23T18:39:34.615Z,21.77
2019-03-23T18:42:03.457Z,29.80
2019-03-23T18:44:32.346Z,21.87
2019-03-23T18:47:01.200Z,22.33
2019-03-23T18:49:30.045Z,25.40
2019-03-23T18:51:58.931Z,22.37
2019-03-23T18:54:27.777Z,20.07
2019-03-23T18:56:56.620Z,20.60
2019-03-23T18:59:27.228Z,18.23
2019-03-23T19:01:56.156Z,21.10
2019-03-23T19:04:25.085Z,23.50
2019-03-23T19:06:53.976Z,22.67
2019-03-23T19:09:22.870Z,21.37
2019-03-23T19:11:51.860Z,20.10
2019-03-23T19:14:20.852Z,23.03
2019-03-23T19:16:49.690Z,16.70
2019-03-23T19:19:19.661Z,19.27
2019-03-23T19:21:50.698Z,21.10
2019-03-23T19:24:19.391Z,20.70
2019-03-23T19:26:48.320Z,20.77
2019-03-23T19:29:17.717Z,17.57
2019-03-23T19:31:46.719Z,20.53
2019-03-23T19:34:15.969Z,21.37
2019-03-23T19:36:45.665Z,22.90
2019-03-23T19:39:14.678Z,20.50
2019-03-23T19:41:43.724Z,19.30
2019-03-23T19:44:13.689Z,17.53
2019-03-23T19:46:42.989Z,21.17
2019-03-23T19:49:15.360Z,18.37
2019-03-23T19:51:44.558Z,19.87
2019-03-23T19:54:15.702Z,20.40
2019-03-23T19:56:45.206Z,20.10
2019-03-23T19:59:14.405Z,19.80
2019-03-23T20:01:44.524Z,19.77
2019-03-23T20:04:13.945Z,17.97
2019-03-23T20:06:43.521Z,19.37
2019-03-23T20:09:12.443Z,19.10
2019-03-23T20:11:41.325Z,19.33
2019-03-23T20:14:10.202Z,21.80
2019-03-23T20:16:39.196Z,18.07
2019-03-23T20:19:08.158Z,21.13
2019-03-23T20:21:37.127Z,18.10
2019-03-23T20:24:06.156Z,18.83
2019-03-23T20:26:35.527Z,21.20
2019-03-23T20:29:04.513Z,21.43
2019-03-23T20:31:33.564Z,20.07
2019-03-23T20:34:02.765Z,20.90
2019-03-23T20:36:31.949Z,20.57
2019-03-23T20:39:01.014Z,22.00
2019-03-23T20:41:30.365Z,18.70
2019-03-23T20:44:09.136Z,20.37
2019-03-23T20:46:30.815Z,19.03
2019-03-23T20:49:00.512Z,23.33
2019-03-23T20:51:30.183Z,26.20
2019-03-23T20:53:59.526Z,24.57
2019-03-23T20:56:28.402Z,22.83
2019-03-23T20:58:57.365Z,21.37
2019-03-23T21:01:26.455Z,25.00
2019-03-23T21:03:55.887Z,19.23
2019-03-23T21:06:24.991Z,21.47
2019-03-23T21:08:53.937Z,20.50
2019-03-23T21:11:22.907Z,18.60
2019-03-23T21:13:52.516Z,23.30
2019-03-23T21:16:21.610Z,20.67
2019-03-23T21:18:50.570Z,20.50
2019-03-23T21:21:20.130Z,19.10
2019-03-23T21:23:51.934Z,22.20
2019-03-23T21:26:20.431Z,23.10
2019-03-23T21:28:49.989Z,25.27
2019-03-23T21:31:18.878Z,18.43
2019-03-23T21:33:47.940Z,19.90
2019-03-23T21:36:17.323Z,19.60
2019-03-23T21:38:46.179Z,20.20
2019-03-23T21:41:15.829Z,23.50
2019-03-23T21:43:45.553Z,22.27
2019-03-23T21:46:14.446Z,23.50
2019-03-23T21:48:44.067Z,21.40
2019-03-23T21:51:13.381Z,19.47
2019-03-23T21:53:42.690Z,21.37
2019-03-23T21:56:11.946Z,20.73
2019-03-23T21:58:41.455Z,23.83
2019-03-23T22:01:10.569Z,25.43
2019-03-23T22:03:39.419Z,20.13
2019-03-23T22:06:08.311Z,23.00
2019-03-23T22:08:37.173Z,24.40
2019-03-23T22:11:06.017Z,20.90
2019-03-23T22:13:34.898Z,19.33
2019-03-23T22:16:05.213Z,23.20
2019-03-23T22:18:34.291Z,21.07
2019-03-23T22:21:03.195Z,21.53
2019-03-23T22:23:32.038Z,19.43
2019-03-23T22:26:00.915Z,21.80
2019-03-23T22:28:29.803Z,23.90
2019-03-23T22:30:58.690Z,22.37
2019-03-23T22:33:27.543Z,19.77
2019-03-23T22:35:56.439Z,22.13
2019-03-23T22:38:25.331Z,20.23
2019-03-23T22:40:54.220Z,20.37
2019-03-23T22:43:23.213Z,25.40
2019-03-23T22:45:51.704Z,20.77
2019-03-23T22:48:20.380Z,20.80
2019-03-23T22:50:48.832Z,19.30
2019-03-23T22:53:17.326Z,21.40
2019-03-23T22:55:45.807Z,21.03
2019-03-23T22:58:14.268Z,22.07
2019-03-23T23:00:46.882Z,18.47
2019-03-23T23:03:15.470Z,19.77
2019-03-23T23:05:44.152Z,19.60
2019-03-23T23:08:12.760Z,22.07
2019-03-23T23:10:41.421Z,22.00
2019-03-23T23:13:09.866Z,19.77
2019-03-23T23:15:38.374Z,21.37
2019-03-23T23:18:06.816Z,20.70
2019-03-23T23:20:35.263Z,21.60
2019-03-23T23:23:04.979Z,21.00
2019-03-23T23:25:34.476Z,19.93
2019-03-23T23:28:03.195Z,19.80
2019-03-23T23:30:32.883Z,20.53
2019-03-23T23:33:01.342Z,22.97
2019-03-23T23:35:29.817Z,20.53
2019-03-23T23:37:58.296Z,22.77
2019-03-23T23:40:26.746Z,23.33
2019-03-23T23:42:55.256Z,23.20
2019-03-23T23:45:23.708Z,25.07
2019-03-23T23:47:52.223Z,27.33
2019-03-23T23:50:20.764Z,26.50
2019-03-23T23:52:49.387Z,24.07
2019-03-23T23:55:17.915Z,37.20
2019-03-23T23:57:46.428Z,31.27
